• Join FlightAware (Why Join?)
  • Login
  • US Flag 
02:04AM EDT


 

Airport Tracker/Info


-or-


 

Live Flight TrackerFlight Track Log ✈ JBU56 ✈ 15-Jul-2013 ✈ KIAD - KBOS

Flight Track Log - Related Links

Times and Time Zones

All times are in EDT time to prevent confusion due to time zone crossing. See the JBU56 flight status page for this flight to view local times or setup timezone preferences in your user account.

Time Position Orientation Groundspeed Altitude Reporting Facility
EDT Latitude Longitude Course Direction KTS MPH feet Rate Location/Type
09:06AM 38.9833 -77.5500 78° East 207 238 3,300  Level Potomac TRACON
09:07AM 39.0333 -77.5667 345° North 224 258 6,400 2,700 Climbing Potomac TRACON
09:08AM 39.0833 -77.5167 38° Northeast 275 316 8,500 1,920 Climbing Potomac TRACON
09:09AM 39.0234 -76.9882 77° East  Level FlightAware Approximate
09:09AM 39.1333 -77.4167 57° Northeast 321 369 10,100  Level Potomac TRACON
09:10AM 39.0382 -76.9041 78° East  Level FlightAware Approximate
09:10AM 39.1500 -77.3000 80° East 353 406 10,000  Level Potomac TRACON
09:11AM 39.0523 -76.8198 78° East  Level FlightAware Approximate
09:12AM 39.0663 -76.7355 78° East  Level FlightAware Approximate
09:13AM 39.0736 -77.0408 111° Southeast 356 410 14,200  Level Washington Center
09:14AM 39.0814 -76.9097 86° East 356 410 16,900 2,220 Climbing Washington Center
09:15AM 39.0953 -76.7764 82° East 362 417 18,700 1,920 Climbing Washington Center
09:16AM 39.1111 -76.6403 81° East 372 428 20,900 1,980 Climbing Washington Center
09:17AM 39.1225 -76.5011 84° East 383 441 22,800 1,020 Climbing Washington Center
09:18AM 39.1381 -76.3542 82° East 394 453 23,000 60 Climbing Washington Center
09:19AM 39.1514 -76.2044 83° East 414 476 23,000  Level Washington Center
09:20AM 39.1750 -76.0442 79° East 420 483 23,000 600 Level Washington Center
09:21AM 39.1964 -75.8969 79° East 420 483 24,300 1,260 Climbing Washington Center
09:22AM 39.2717 -75.7792 50° Northeast 411 473 25,600 1,140 Climbing Washington Center
09:23AM 39.3614 -75.6639 45° Northeast 416 479 26,700 1,320 Climbing Washington Center
09:24AM 39.4489 -75.5486 45° Northeast 437 503 28,200 1,440 Climbing Washington Center
09:25AM 39.5383 -75.4328 45° Northeast 443 510 29,600 1,080 Climbing Washington Center
09:26AM 39.6672 -75.2667 45° Northeast 441 507 31,000 540 Climbing New York Center
09:27AM 39.7622 -75.1242 49° Northeast 448 516 31,000  Level New York Center
09:28AM 39.8481 -75.0025 47° Northeast 456 525 31,000  Level New York Center
09:29AM 39.9336 -74.8803 48° Northeast 456 525 31,000  Level New York Center
09:30AM 40.0194 -74.7500 49° Northeast 456 525 31,000  Level New York Center
09:31AM 40.0942 -74.6347 50° Northeast 464 534 31,000  Level New York Center
09:32AM 40.1753 -74.5117 49° Northeast 459 528 31,000  Level New York Center
09:33AM 40.2692 -74.3669 50° Northeast 464 534 31,000  Level New York Center
09:34AM 40.3503 -74.2406 50° Northeast 464 534 31,000  Level New York Center
09:35AM 40.4353 -74.1114 49° Northeast 464 534 31,000  Level New York Center
09:36AM 40.5158 -73.9814 51° Northeast 459 528 31,000 -840 Level New York Center
09:38AM 40.6969 -73.7019 49° Northeast 469 540 28,500 -1,680 Descending Boston Center
09:39AM 40.7714 -73.5692 53° Northeast 464 534 25,900 -2,280 Descending Boston Center
09:40AM 40.8536 -73.4472 48° Northeast 453 521 24,000 -1,020 Descending Boston Center
09:41AM 40.9150 -73.3492 50° Northeast 441 507 23,900 -240 Descending Boston Center
09:42AM 41.0097 -73.2186 46° Northeast 425 489 23,600 -300 Descending Boston Center
09:43AM 41.0686 -73.1256 50° Northeast 414 476 23,300 -300 Descending Boston Center
09:44AM 41.1611 -72.9914 47° Northeast 409 471 23,000 -180 Descending Boston Center
09:45AM 41.2347 -72.8706 51° Northeast 414 476 23,000  Level Boston Center
09:46AM 41.2872 -72.7303 63° Northeast 414 476 23,000  Level Boston Center
09:47AM 41.3394 -72.5950 63° Northeast 414 476 23,000  Level Boston Center
09:48AM 41.3897 -72.4567 64° Northeast 409 471 23,000  Level Boston Center
09:49AM 41.4417 -72.3183 63° Northeast 409 471 23,000  Level Boston Center
09:50AM 41.4894 -72.1853 64° Northeast 404 465 23,000  Level Boston Center
09:51AM 41.5411 -72.0433 64° Northeast 404 465 23,000 -420 Level Boston Center
09:52AM 41.5842 -71.9017 68° East 404 465 22,200 -1,500 Descending Boston Center
09:53AM 41.6272 -71.7625 67° East 404 465 20,000 -2,100 Descending Boston Center
09:54AM 41.6597 -71.6397 70° East 385 443 18,000 -2,100 Descending Boston Center
09:55AM 41.7044 -71.4947 68° East 385 443 15,900 -2,100 Descending Boston Center
09:56AM 41.7492 -71.3717 64° Northeast 364 419 13,800 -1,920 Descending Boston Center
09:57AM 41.7981 -71.2567 60° Northeast 353 406 12,100 -1,440 Descending Boston Center
09:58AM 41.8450 -71.1497 59° Northeast 342 394 11,000 -600 Descending Boston Center
09:59AM 41.8894 -71.0431 61° Northeast 335 386 11,000  Level Boston Center
10:00AM 41.9167 -70.9833 58° Northeast 325 374 11,000  Level KA90
10:01AM 41.9500 -70.8833 66° East 324 373 11,000  Level KA90
10:01AM 41.9706 -70.8569 44° Northeast 320 368 11,000 -420 Level Boston Center
10:02AM 42.0231 -70.7522 56° Northeast 320 368 10,400 -1,140 Descending Boston Center
10:03AM 42.0783 -70.6778 45° Northeast 295 339 8,800 -1,560 Descending Boston Center
10:04AM 42.1528 -70.6478 17° North 267 307 7,300 -1,620 Descending Boston Center
10:05AM 42.2231 -70.6178 18° North 262 302 5,600 -1,680 Descending Boston Center
10:06AM 42.3006 -70.6408 348° North 256 295 4,000 -1,020 Descending Boston Center
10:07AM 42.3661 -70.6867 333° Northwest 251 289 3,600 -480 Descending Boston Center
10:08AM 42.4067 -70.7503 311° West 226 260 3,100 -780 Descending Boston Center
10:11AM 42.3667 -70.9167 252° West 182 209 1,000 -840 Descending KA90
10:12AM 42.3667 -70.9667 270° West 145 167 300 -720 Descending KA90